sensor_id;sensor_type;location;lat;lon;timestamp;P1;durP1;ratioP1;P2;durP2;ratioP2
16262;SDS011;8239;48.594;8.598;2023-03-24T00:00:59;28.30;;;4.77;;
16262;SDS011;8239;48.594;8.598;2023-03-24T00:03:27;101.83;;;8.23;;
16262;SDS011;8239;48.594;8.598;2023-03-24T00:05:55;4.53;;;4.10;;
16262;SDS011;8239;48.594;8.598;2023-03-24T00:08:27;4.73;;;4.10;;
16262;SDS011;8239;48.594;8.598;2023-03-24T00:10:57;4.87;;;4.10;;
16262;SDS011;8239;48.594;8.598;2023-03-24T00:13:28;4.87;;;4.37;;
16262;SDS011;8239;48.594;8.598;2023-03-24T00:15:56;4.90;;;4.20;;
16262;SDS011;8239;48.594;8.598;2023-03-24T00:18:24;5.00;;;4.10;;
16262;SDS011;8239;48.594;8.598;2023-03-24T00:20:51;5.80;;;4.33;;
16262;SDS011;8239;48.594;8.598;2023-03-24T00:23:23;4.70;;;3.80;;
16262;SDS011;8239;48.594;8.598;2023-03-24T00:26:00;5.73;;;4.07;;
16262;SDS011;8239;48.594;8.598;2023-03-24T00:28:29;4.77;;;3.90;;
16262;SDS011;8239;48.594;8.598;2023-03-24T00:30:57;4.03;;;3.67;;
16262;SDS011;8239;48.594;8.598;2023-03-24T00:33:26;4.93;;;3.97;;
16262;SDS011;8239;48.594;8.598;2023-03-24T00:35:57;4.37;;;3.97;;
16262;SDS011;8239;48.594;8.598;2023-03-24T00:38:25;5.57;;;3.83;;
16262;SDS011;8239;48.594;8.598;2023-03-24T00:40:53;6.43;;;4.30;;
16262;SDS011;8239;48.594;8.598;2023-03-24T00:43:22;4.50;;;4.10;;
16262;SDS011;8239;48.594;8.598;2023-03-24T00:45:56;4.30;;;3.90;;
16262;SDS011;8239;48.594;8.598;2023-03-24T00:48:26;6.03;;;4.10;;
16262;SDS011;8239;48.594;8.598;2023-03-24T00:50:54;5.87;;;4.30;;
16262;SDS011;8239;48.594;8.598;2023-03-24T00:53:22;5.60;;;4.47;;
16262;SDS011;8239;48.594;8.598;2023-03-24T00:55:54;7.20;;;4.10;;
16262;SDS011;8239;48.594;8.598;2023-03-24T00:58:24;6.17;;;4.47;;
16262;SDS011;8239;48.594;8.598;2023-03-24T01:00:55;5.10;;;4.37;;
16262;SDS011;8239;48.594;8.598;2023-03-24T01:03:23;5.13;;;4.10;;
16262;SDS011;8239;48.594;8.598;2023-03-24T01:05:51;4.50;;;4.10;;
16262;SDS011;8239;48.594;8.598;2023-03-24T01:08:22;5.77;;;4.00;;
16262;SDS011;8239;48.594;8.598;2023-03-24T01:10:50;4.83;;;3.80;;
16262;SDS011;8239;48.594;8.598;2023-03-24T01:13:18;4.70;;;4.10;;
16262;SDS011;8239;48.594;8.598;2023-03-24T01:15:48;4.50;;;3.47;;
16262;SDS011;8239;48.594;8.598;2023-03-24T01:18:16;4.23;;;3.80;;
16262;SDS011;8239;48.594;8.598;2023-03-24T01:20:44;4.40;;;4.00;;
16262;SDS011;8239;48.594;8.598;2023-03-24T01:23:14;3.83;;;3.43;;
16262;SDS011;8239;48.594;8.598;2023-03-24T01:25:43;4.60;;;3.97;;
16262;SDS011;8239;48.594;8.598;2023-03-24T01:28:12;3.90;;;3.50;;
16262;SDS011;8239;48.594;8.598;2023-03-24T01:30:40;4.50;;;3.77;;
16262;SDS011;8239;48.594;8.598;2023-03-24T01:33:10;4.27;;;3.80;;
16262;SDS011;8239;48.594;8.598;2023-03-24T01:35:37;3.60;;;3.30;;
16262;SDS011;8239;48.594;8.598;2023-03-24T01:38:04;3.50;;;3.20;;
16262;SDS011;8239;48.594;8.598;2023-03-24T01:40:33;4.03;;;3.13;;
16262;SDS011;8239;48.594;8.598;2023-03-24T01:43:03;3.70;;;3.20;;
16262;SDS011;8239;48.594;8.598;2023-03-24T01:45:50;3.63;;;3.33;;
16262;SDS011;8239;48.594;8.598;2023-03-24T01:48:33;3.40;;;3.10;;
16262;SDS011;8239;48.594;8.598;2023-03-24T01:51:04;3.73;;;3.00;;
16262;SDS011;8239;48.594;8.598;2023-03-24T01:53:36;3.60;;;3.30;;
16262;SDS011;8239;48.594;8.598;2023-03-24T01:56:06;3.40;;;3.10;;
16262;SDS011;8239;48.594;8.598;2023-03-24T01:58:35;4.23;;;3.10;;
16262;SDS011;8239;48.594;8.598;2023-03-24T02:01:05;3.33;;;2.93;;
16262;SDS011;8239;48.594;8.598;2023-03-24T02:03:34;4.27;;;3.20;;
16262;SDS011;8239;48.594;8.598;2023-03-24T02:06:04;3.73;;;3.13;;
16262;SDS011;8239;48.594;8.598;2023-03-24T02:08:35;3.00;;;2.80;;
16262;SDS011;8239;48.594;8.598;2023-03-24T02:11:05;3.70;;;2.90;;
16262;SDS011;8239;48.594;8.598;2023-03-24T02:13:33;3.97;;;2.93;;
16262;SDS011;8239;48.594;8.598;2023-03-24T02:16:06;3.73;;;3.27;;
16262;SDS011;8239;48.594;8.598;2023-03-24T02:18:44;3.43;;;3.10;;
16262;SDS011;8239;48.594;8.598;2023-03-24T02:27:28;3.43;;;3.13;;
16262;SDS011;8239;48.594;8.598;2023-03-24T02:42:54;3.17;;;2.87;;
16262;SDS011;8239;48.594;8.598;2023-03-24T02:45:31;4.43;;;3.07;;
16262;SDS011;8239;48.594;8.598;2023-03-24T02:48:05;4.30;;;3.30;;
16262;SDS011;8239;48.594;8.598;2023-03-24T02:50:44;3.73;;;3.30;;
16262;SDS011;8239;48.594;8.598;2023-03-24T02:53:16;3.67;;;3.37;;
16262;SDS011;8239;48.594;8.598;2023-03-24T02:55:50;5.07;;;3.30;;
16262;SDS011;8239;48.594;8.598;2023-03-24T02:58:25;5.50;;;3.50;;
16262;SDS011;8239;48.594;8.598;2023-03-24T03:00:57;4.57;;;3.60;;
16262;SDS011;8239;48.594;8.598;2023-03-24T03:03:30;3.80;;;3.50;;
16262;SDS011;8239;48.594;8.598;2023-03-24T03:06:04;5.53;;;3.60;;
16262;SDS011;8239;48.594;8.598;2023-03-24T03:08:36;3.80;;;3.50;;
16262;SDS011;8239;48.594;8.598;2023-03-24T03:11:06;118.63;;;8.17;;
16262;SDS011;8239;48.594;8.598;2023-03-24T03:13:41;308.57;;;15.53;;
16262;SDS011;8239;48.594;8.598;2023-03-24T03:16:14;4.53;;;3.00;;
16262;SDS011;8239;48.594;8.598;2023-03-24T03:18:47;4.03;;;3.10;;
16262;SDS011;8239;48.594;8.598;2023-03-24T03:21:17;3.40;;;3.10;;
16262;SDS011;8239;48.594;8.598;2023-03-24T03:23:48;4.50;;;3.17;;
16262;SDS011;8239;48.594;8.598;2023-03-24T03:26:17;3.77;;;3.47;;
16262;SDS011;8239;48.594;8.598;2023-03-24T03:28:51;3.70;;;3.40;;
16262;SDS011;8239;48.594;8.598;2023-03-24T03:31:24;5.47;;;3.70;;
16262;SDS011;8239;48.594;8.598;2023-03-24T03:33:57;4.97;;;3.87;;
16262;SDS011;8239;48.594;8.598;2023-03-24T03:36:29;4.20;;;3.53;;
16262;SDS011;8239;48.594;8.598;2023-03-24T03:39:04;3.70;;;3.40;;
16262;SDS011;8239;48.594;8.598;2023-03-24T03:41:35;3.83;;;3.53;;
16262;SDS011;8239;48.594;8.598;2023-03-24T03:44:05;4.20;;;3.03;;
16262;SDS011;8239;48.594;8.598;2023-03-24T03:46:33;3.63;;;3.33;;
16262;SDS011;8239;48.594;8.598;2023-03-24T03:49:01;4.20;;;3.57;;
16262;SDS011;8239;48.594;8.598;2023-03-24T03:51:29;3.50;;;3.07;;
16262;SDS011;8239;48.594;8.598;2023-03-24T03:53:58;4.07;;;3.47;;
16262;SDS011;8239;48.594;8.598;2023-03-24T03:56:28;3.70;;;3.40;;
16262;SDS011;8239;48.594;8.598;2023-03-24T03:58:57;4.00;;;3.60;;
16262;SDS011;8239;48.594;8.598;2023-03-24T04:01:27;4.37;;;3.60;;
16262;SDS011;8239;48.594;8.598;2023-03-24T04:04:04;5.77;;;3.57;;
16262;SDS011;8239;48.594;8.598;2023-03-24T04:06:38;4.40;;;3.70;;
16262;SDS011;8239;48.594;8.598;2023-03-24T04:09:15;3.43;;;3.13;;
16262;SDS011;8239;48.594;8.598;2023-03-24T04:12:01;4.87;;;3.23;;
16262;SDS011;8239;48.594;8.598;2023-03-24T04:14:43;3.23;;;2.93;;
16262;SDS011;8239;48.594;8.598;2023-03-24T04:20:47;3.40;;;2.90;;
16262;SDS011;8239;48.594;8.598;2023-03-24T04:23:23;3.23;;;2.87;;
16262;SDS011;8239;48.594;8.598;2023-03-24T04:25:59;3.90;;;2.90;;
16262;SDS011;8239;48.594;8.598;2023-03-24T04:28:36;3.30;;;3.00;;
16262;SDS011;8239;48.594;8.598;2023-03-24T04:31:09;2.83;;;2.57;;
16262;SDS011;8239;48.594;8.598;2023-03-24T04:33:43;69.13;;;5.70;;
16262;SDS011;8239;48.594;8.598;2023-03-24T04:36:16;3.10;;;2.80;;
16262;SDS011;8239;48.594;8.598;2023-03-24T04:38:48;3.20;;;3.00;;
16262;SDS011;8239;48.594;8.598;2023-03-24T04:41:19;3.40;;;3.10;;
16262;SDS011;8239;48.594;8.598;2023-03-24T04:43:49;4.40;;;3.33;;
16262;SDS011;8239;48.594;8.598;2023-03-24T04:46:17;3.10;;;2.90;;
16262;SDS011;8239;48.594;8.598;2023-03-24T04:48:45;4.00;;;2.77;;
16262;SDS011;8239;48.594;8.598;2023-03-24T04:51:13;4.10;;;2.90;;
16262;SDS011;8239;48.594;8.598;2023-03-24T04:53:41;3.77;;;2.33;;
16262;SDS011;8239;48.594;8.598;2023-03-24T04:56:21;2.43;;;2.23;;
16262;SDS011;8239;48.594;8.598;2023-03-24T04:58:54;2.93;;;2.60;;
16262;SDS011;8239;48.594;8.598;2023-03-24T05:01:22;2.50;;;2.30;;
16262;SDS011;8239;48.594;8.598;2023-03-24T05:03:56;2.40;;;2.20;;
16262;SDS011;8239;48.594;8.598;2023-03-24T05:06:23;3.20;;;2.50;;
16262;SDS011;8239;48.594;8.598;2023-03-24T05:08:51;3.17;;;2.80;;
16262;SDS011;8239;48.594;8.598;2023-03-24T05:11:18;3.03;;;2.73;;
16262;SDS011;8239;48.594;8.598;2023-03-24T05:13:45;2.90;;;2.70;;
16262;SDS011;8239;48.594;8.598;2023-03-24T05:16:13;3.50;;;3.00;;
16262;SDS011;8239;48.594;8.598;2023-03-24T05:18:40;3.83;;;3.20;;
16262;SDS011;8239;48.594;8.598;2023-03-24T05:21:08;3.33;;;3.03;;
16262;SDS011;8239;48.594;8.598;2023-03-24T05:23:35;4.40;;;2.93;;
16262;SDS011;8239;48.594;8.598;2023-03-24T05:26:03;3.33;;;2.93;;
16262;SDS011;8239;48.594;8.598;2023-03-24T05:28:30;3.07;;;2.77;;
16262;SDS011;8239;48.594;8.598;2023-03-24T05:30:57;4.73;;;3.33;;
16262;SDS011;8239;48.594;8.598;2023-03-24T05:33:25;4.20;;;3.50;;
16262;SDS011;8239;48.594;8.598;2023-03-24T05:35:52;4.30;;;3.90;;
16262;SDS011;8239;48.594;8.598;2023-03-24T05:38:20;5.47;;;3.60;;
16262;SDS011;8239;48.594;8.598;2023-03-24T05:40:48;3.67;;;3.37;;
16262;SDS011;8239;48.594;8.598;2023-03-24T05:43:15;4.27;;;3.50;;
16262;SDS011;8239;48.594;8.598;2023-03-24T05:45:42;3.97;;;3.60;;
16262;SDS011;8239;48.594;8.598;2023-03-24T05:48:09;4.53;;;3.57;;
16262;SDS011;8239;48.594;8.598;2023-03-24T05:50:36;5.10;;;3.90;;
16262;SDS011;8239;48.594;8.598;2023-03-24T05:53:03;3.80;;;3.43;;
16262;SDS011;8239;48.594;8.598;2023-03-24T05:55:31;4.03;;;3.63;;
16262;SDS011;8239;48.594;8.598;2023-03-24T05:57:58;3.83;;;3.43;;
16262;SDS011;8239;48.594;8.598;2023-03-24T06:00:26;4.87;;;3.57;;
16262;SDS011;8239;48.594;8.598;2023-03-24T06:02:54;5.47;;;3.80;;
16262;SDS011;8239;48.594;8.598;2023-03-24T06:05:22;5.53;;;4.97;;
16262;SDS011;8239;48.594;8.598;2023-03-24T06:07:49;4.70;;;3.90;;
16262;SDS011;8239;48.594;8.598;2023-03-24T06:10:22;4.57;;;4.17;;
16262;SDS011;8239;48.594;8.598;2023-03-24T06:12:52;4.10;;;2.90;;
16262;SDS011;8239;48.594;8.598;2023-03-24T06:15:19;6.03;;;3.20;;
16262;SDS011;8239;48.594;8.598;2023-03-24T06:17:46;4.00;;;3.33;;
16262;SDS011;8239;48.594;8.598;2023-03-24T06:20:14;3.87;;;3.07;;
16262;SDS011;8239;48.594;8.598;2023-03-24T06:22:43;3.47;;;3.17;;
16262;SDS011;8239;48.594;8.598;2023-03-24T06:25:11;4.30;;;3.53;;
16262;SDS011;8239;48.594;8.598;2023-03-24T06:27:41;3.67;;;3.30;;
16262;SDS011;8239;48.594;8.598;2023-03-24T06:30:12;3.93;;;3.20;;
16262;SDS011;8239;48.594;8.598;2023-03-24T06:32:40;3.50;;;3.17;;
16262;SDS011;8239;48.594;8.598;2023-03-24T06:35:10;4.90;;;3.27;;
16262;SDS011;8239;48.594;8.598;2023-03-24T06:37:38;3.30;;;3.00;;
16262;SDS011;8239;48.594;8.598;2023-03-24T06:40:05;4.07;;;2.90;;
16262;SDS011;8239;48.594;8.598;2023-03-24T06:42:36;4.03;;;2.90;;
16262;SDS011;8239;48.594;8.598;2023-03-24T06:45:04;4.73;;;3.20;;
16262;SDS011;8239;48.594;8.598;2023-03-24T06:47:33;5.13;;;3.10;;
16262;SDS011;8239;48.594;8.598;2023-03-24T06:50:00;3.40;;;3.10;;
16262;SDS011;8239;48.594;8.598;2023-03-24T06:52:27;3.90;;;3.30;;
16262;SDS011;8239;48.594;8.598;2023-03-24T06:54:54;4.80;;;3.23;;
16262;SDS011;8239;48.594;8.598;2023-03-24T06:57:22;3.50;;;3.20;;
16262;SDS011;8239;48.594;8.598;2023-03-24T06:59:49;5.03;;;3.17;;
16262;SDS011;8239;48.594;8.598;2023-03-24T07:02:17;3.37;;;3.03;;
16262;SDS011;8239;48.594;8.598;2023-03-24T07:04:45;4.80;;;3.20;;
16262;SDS011;8239;48.594;8.598;2023-03-24T07:07:13;4.17;;;3.30;;
16262;SDS011;8239;48.594;8.598;2023-03-24T07:09:41;4.13;;;3.50;;
16262;SDS011;8239;48.594;8.598;2023-03-24T07:12:08;3.50;;;3.20;;
16262;SDS011;8239;48.594;8.598;2023-03-24T07:14:37;5.27;;;3.10;;
16262;SDS011;8239;48.594;8.598;2023-03-24T07:17:05;2.80;;;2.50;;
16262;SDS011;8239;48.594;8.598;2023-03-24T07:19:32;3.07;;;2.77;;
16262;SDS011;8239;48.594;8.598;2023-03-24T07:22:00;2.63;;;2.43;;
16262;SDS011;8239;48.594;8.598;2023-03-24T07:24:27;2.40;;;2.20;;
16262;SDS011;8239;48.594;8.598;2023-03-24T07:26:54;2.70;;;2.50;;
16262;SDS011;8239;48.594;8.598;2023-03-24T07:29:21;2.80;;;2.40;;
16262;SDS011;8239;48.594;8.598;2023-03-24T07:31:49;2.40;;;2.20;;
16262;SDS011;8239;48.594;8.598;2023-03-24T07:34:17;2.80;;;2.40;;
16262;SDS011;8239;48.594;8.598;2023-03-24T07:36:44;2.40;;;2.20;;
16262;SDS011;8239;48.594;8.598;2023-03-24T07:39:12;3.00;;;2.37;;
16262;SDS011;8239;48.594;8.598;2023-03-24T07:41:40;2.10;;;2.00;;
16262;SDS011;8239;48.594;8.598;2023-03-24T07:44:07;3.07;;;2.20;;
16262;SDS011;8239;48.594;8.598;2023-03-24T07:46:34;2.20;;;2.00;;
16262;SDS011;8239;48.594;8.598;2023-03-24T07:49:01;2.47;;;2.10;;
16262;SDS011;8239;48.594;8.598;2023-03-24T07:51:29;1.97;;;1.77;;
16262;SDS011;8239;48.594;8.598;2023-03-24T07:53:56;2.33;;;2.17;;
16262;SDS011;8239;48.594;8.598;2023-03-24T07:56:24;2.00;;;1.90;;
16262;SDS011;8239;48.594;8.598;2023-03-24T07:58:51;2.90;;;2.10;;
16262;SDS011;8239;48.594;8.598;2023-03-24T08:01:18;1.93;;;1.83;;
16262;SDS011;8239;48.594;8.598;2023-03-24T08:03:45;1.70;;;1.60;;
16262;SDS011;8239;48.594;8.598;2023-03-24T08:06:13;2.37;;;1.70;;
16262;SDS011;8239;48.594;8.598;2023-03-24T08:08:40;2.63;;;1.70;;
16262;SDS011;8239;48.594;8.598;2023-03-24T08:11:07;1.70;;;1.60;;
16262;SDS011;8239;48.594;8.598;2023-03-24T08:13:36;1.77;;;1.60;;
16262;SDS011;8239;48.594;8.598;2023-03-24T08:16:03;1.60;;;1.50;;
16262;SDS011;8239;48.594;8.598;2023-03-24T08:18:30;2.00;;;1.70;;
16262;SDS011;8239;48.594;8.598;2023-03-24T08:20:59;1.50;;;1.40;;
16262;SDS011;8239;48.594;8.598;2023-03-24T08:23:26;1.57;;;1.30;;
16262;SDS011;8239;48.594;8.598;2023-03-24T08:25:53;1.97;;;1.87;;
16262;SDS011;8239;48.594;8.598;2023-03-24T08:28:21;2.30;;;1.97;;
16262;SDS011;8239;48.594;8.598;2023-03-24T08:30:49;2.10;;;1.90;;
16262;SDS011;8239;48.594;8.598;2023-03-24T08:33:16;1.67;;;1.57;;
16262;SDS011;8239;48.594;8.598;2023-03-24T08:35:43;2.03;;;1.47;;
16262;SDS011;8239;48.594;8.598;2023-03-24T08:38:11;1.83;;;1.63;;
16262;SDS011;8239;48.594;8.598;2023-03-24T08:40:39;1.80;;;1.57;;
16262;SDS011;8239;48.594;8.598;2023-03-24T08:43:10;1.93;;;1.60;;
16262;SDS011;8239;48.594;8.598;2023-03-24T08:45:39;1.60;;;1.47;;
16262;SDS011;8239;48.594;8.598;2023-03-24T08:48:08;1.83;;;1.73;;
16262;SDS011;8239;48.594;8.598;2023-03-24T08:50:36;1.40;;;1.30;;
16262;SDS011;8239;48.594;8.598;2023-03-24T08:53:05;1.80;;;1.70;;
16262;SDS011;8239;48.594;8.598;2023-03-24T08:55:32;1.70;;;1.60;;
16262;SDS011;8239;48.594;8.598;2023-03-24T08:58:01;1.70;;;1.50;;
16262;SDS011;8239;48.594;8.598;2023-03-24T09:00:28;1.80;;;1.70;;
16262;SDS011;8239;48.594;8.598;2023-03-24T09:02:55;1.70;;;1.60;;
16262;SDS011;8239;48.594;8.598;2023-03-24T09:05:23;2.13;;;1.83;;
16262;SDS011;8239;48.594;8.598;2023-03-24T09:07:51;2.10;;;1.90;;
16262;SDS011;8239;48.594;8.598;2023-03-24T09:10:18;1.60;;;1.50;;
16262;SDS011;8239;48.594;8.598;2023-03-24T09:12:46;1.70;;;1.57;;
16262;SDS011;8239;48.594;8.598;2023-03-24T09:15:13;1.70;;;1.50;;
16262;SDS011;8239;48.594;8.598;2023-03-24T09:17:41;1.60;;;1.50;;
16262;SDS011;8239;48.594;8.598;2023-03-24T09:20:09;1.60;;;1.50;;
16262;SDS011;8239;48.594;8.598;2023-03-24T09:22:39;1.60;;;1.50;;
16262;SDS011;8239;48.594;8.598;2023-03-24T09:25:08;1.33;;;1.23;;
16262;SDS011;8239;48.594;8.598;2023-03-24T09:27:37;1.40;;;1.30;;
16262;SDS011;8239;48.594;8.598;2023-03-24T09:30:05;2.57;;;1.50;;
16262;SDS011;8239;48.594;8.598;2023-03-24T09:32:33;1.50;;;1.40;;
16262;SDS011;8239;48.594;8.598;2023-03-24T09:35:00;1.27;;;1.23;;
16262;SDS011;8239;48.594;8.598;2023-03-24T09:37:28;1.50;;;1.10;;
16262;SDS011;8239;48.594;8.598;2023-03-24T09:39:56;1.00;;;1.00;;
16262;SDS011;8239;48.594;8.598;2023-03-24T09:42:27;1.52;;;1.30;;
16262;SDS011;8239;48.594;8.598;2023-03-24T09:44:58;1.40;;;1.30;;
16262;SDS011;8239;48.594;8.598;2023-03-24T09:47:32;1.38;;;1.27;;
16262;SDS011;8239;48.594;8.598;2023-03-24T09:50:05;1.50;;;1.40;;
16262;SDS011;8239;48.594;8.598;2023-03-24T09:52:35;1.20;;;1.20;;
16262;SDS011;8239;48.594;8.598;2023-03-24T09:55:10;1.50;;;1.40;;
16262;SDS011;8239;48.594;8.598;2023-03-24T09:57:41;1.50;;;1.40;;
16262;SDS011;8239;48.594;8.598;2023-03-24T10:00:18;1.83;;;1.30;;
16262;SDS011;8239;48.594;8.598;2023-03-24T10:02:47;1.57;;;1.47;;
16262;SDS011;8239;48.594;8.598;2023-03-24T10:05:14;1.47;;;1.20;;
16262;SDS011;8239;48.594;8.598;2023-03-24T10:07:44;1.87;;;1.40;;
16262;SDS011;8239;48.594;8.598;2023-03-24T10:10:19;1.30;;;1.20;;
16262;SDS011;8239;48.594;8.598;2023-03-24T10:12:53;1.60;;;1.50;;
16262;SDS011;8239;48.594;8.598;2023-03-24T10:15:29;1.50;;;1.40;;
16262;SDS011;8239;48.594;8.598;2023-03-24T10:18:04;1.40;;;1.20;;
16262;SDS011;8239;48.594;8.598;2023-03-24T10:20:46;1.40;;;1.30;;
16262;SDS011;8239;48.594;8.598;2023-03-24T10:23:19;1.60;;;1.20;;
16262;SDS011;8239;48.594;8.598;2023-03-24T10:25:58;1.50;;;1.40;;
16262;SDS011;8239;48.594;8.598;2023-03-24T10:28:32;1.40;;;1.30;;
16262;SDS011;8239;48.594;8.598;2023-03-24T10:31:05;0.90;;;0.90;;
16262;SDS011;8239;48.594;8.598;2023-03-24T10:33:37;1.00;;;1.00;;
16262;SDS011;8239;48.594;8.598;2023-03-24T10:36:07;1.00;;;1.00;;
16262;SDS011;8239;48.594;8.598;2023-03-24T10:38:36;1.10;;;1.10;;
16262;SDS011;8239;48.594;8.598;2023-03-24T10:41:05;1.40;;;1.30;;
16262;SDS011;8239;48.594;8.598;2023-03-24T10:43:32;1.40;;;1.30;;
16262;SDS011;8239;48.594;8.598;2023-03-24T10:46:00;1.17;;;1.17;;
16262;SDS011;8239;48.594;8.598;2023-03-24T10:48:35;1.10;;;1.00;;
16262;SDS011;8239;48.594;8.598;2023-03-24T10:51:12;1.17;;;1.03;;
16262;SDS011;8239;48.594;8.598;2023-03-24T10:53:41;1.03;;;1.03;;
16262;SDS011;8239;48.594;8.598;2023-03-24T10:56:13;1.20;;;1.10;;
16262;SDS011;8239;48.594;8.598;2023-03-24T10:58:42;1.30;;;1.20;;
16262;SDS011;8239;48.594;8.598;2023-03-24T11:01:18;1.00;;;1.00;;
16262;SDS011;8239;48.594;8.598;2023-03-24T11:03:50;1.20;;;1.10;;
16262;SDS011;8239;48.594;8.598;2023-03-24T11:06:18;0.60;;;0.60;;
16262;SDS011;8239;48.594;8.598;2023-03-24T11:08:46;1.07;;;1.00;;
16262;SDS011;8239;48.594;8.598;2023-03-24T11:11:33;1.00;;;1.00;;
16262;SDS011;8239;48.594;8.598;2023-03-24T11:14:01;1.00;;;1.00;;
16262;SDS011;8239;48.594;8.598;2023-03-24T11:16:29;1.27;;;1.10;;
16262;SDS011;8239;48.594;8.598;2023-03-24T11:18:58;1.00;;;0.90;;
16262;SDS011;8239;48.594;8.598;2023-03-24T11:21:27;0.90;;;0.90;;
16262;SDS011;8239;48.594;8.598;2023-03-24T11:23:56;1.23;;;1.00;;
16262;SDS011;8239;48.594;8.598;2023-03-24T11:26:27;0.80;;;0.80;;
16262;SDS011;8239;48.594;8.598;2023-03-24T11:28:59;1.67;;;1.00;;
16262;SDS011;8239;48.594;8.598;2023-03-24T11:31:29;2.23;;;0.90;;
16262;SDS011;8239;48.594;8.598;2023-03-24T11:33:57;0.53;;;0.53;;
16262;SDS011;8239;48.594;8.598;2023-03-24T11:36:36;0.77;;;0.70;;
16262;SDS011;8239;48.594;8.598;2023-03-24T11:39:10;1.33;;;0.80;;
16262;SDS011;8239;48.594;8.598;2023-03-24T11:41:41;0.60;;;0.60;;
16262;SDS011;8239;48.594;8.598;2023-03-24T11:44:18;0.50;;;0.50;;
16262;SDS011;8239;48.594;8.598;2023-03-24T11:46:49;0.70;;;0.70;;
16262;SDS011;8239;48.594;8.598;2023-03-24T11:49:20;0.60;;;0.60;;
16262;SDS011;8239;48.594;8.598;2023-03-24T11:51:52;0.50;;;0.50;;
16262;SDS011;8239;48.594;8.598;2023-03-24T11:54:22;0.60;;;0.60;;
16262;SDS011;8239;48.594;8.598;2023-03-24T11:56:53;0.40;;;0.40;;
16262;SDS011;8239;48.594;8.598;2023-03-24T11:59:30;0.40;;;0.40;;
16262;SDS011;8239;48.594;8.598;2023-03-24T12:02:08;0.57;;;0.57;;
16262;SDS011;8239;48.594;8.598;2023-03-24T12:04:46;0.60;;;0.60;;
16262;SDS011;8239;48.594;8.598;2023-03-24T12:07:35;0.50;;;0.50;;
16262;SDS011;8239;48.594;8.598;2023-03-24T12:10:12;0.27;;;0.27;;
16262;SDS011;8239;48.594;8.598;2023-03-24T12:12:49;0.50;;;0.50;;
16262;SDS011;8239;48.594;8.598;2023-03-24T12:15:37;0.40;;;0.40;;
16262;SDS011;8239;48.594;8.598;2023-03-24T12:18:18;0.40;;;0.40;;
16262;SDS011;8239;48.594;8.598;2023-03-24T12:21:09;0.73;;;0.60;;
16262;SDS011;8239;48.594;8.598;2023-03-24T12:23:47;0.63;;;0.63;;
16262;SDS011;8239;48.594;8.598;2023-03-24T12:26:22;0.47;;;0.47;;
16262;SDS011;8239;48.594;8.598;2023-03-24T12:32:15;0.50;;;0.50;;
16262;SDS011;8239;48.594;8.598;2023-03-24T12:35:13;0.40;;;0.40;;
16262;SDS011;8239;48.594;8.598;2023-03-24T12:37:58;0.60;;;0.60;;
16262;SDS011;8239;48.594;8.598;2023-03-24T12:40:44;0.50;;;0.50;;
16262;SDS011;8239;48.594;8.598;2023-03-24T12:43:25;0.67;;;0.53;;
16262;SDS011;8239;48.594;8.598;2023-03-24T12:45:57;0.50;;;0.50;;
16262;SDS011;8239;48.594;8.598;2023-03-24T12:48:37;0.50;;;0.50;;
16262;SDS011;8239;48.594;8.598;2023-03-24T12:51:19;0.60;;;0.60;;
16262;SDS011;8239;48.594;8.598;2023-03-24T12:54:00;0.67;;;0.67;;
16262;SDS011;8239;48.594;8.598;2023-03-24T12:56:38;1.00;;;0.70;;
16262;SDS011;8239;48.594;8.598;2023-03-24T12:59:09;0.60;;;0.60;;
16262;SDS011;8239;48.594;8.598;2023-03-24T13:01:40;0.93;;;0.80;;
16262;SDS011;8239;48.594;8.598;2023-03-24T13:04:12;1.00;;;0.90;;
16262;SDS011;8239;48.594;8.598;2023-03-24T13:06:47;0.70;;;0.70;;
16262;SDS011;8239;48.594;8.598;2023-03-24T13:09:19;0.70;;;0.70;;
16262;SDS011;8239;48.594;8.598;2023-03-24T13:11:57;0.67;;;0.67;;
16262;SDS011;8239;48.594;8.598;2023-03-24T13:14:29;0.90;;;0.90;;
16262;SDS011;8239;48.594;8.598;2023-03-24T13:17:02;0.70;;;0.70;;
16262;SDS011;8239;48.594;8.598;2023-03-24T13:19:33;0.63;;;0.63;;
16262;SDS011;8239;48.594;8.598;2023-03-24T13:22:02;0.67;;;0.67;;
16262;SDS011;8239;48.594;8.598;2023-03-24T13:24:32;0.60;;;0.60;;
16262;SDS011;8239;48.594;8.598;2023-03-24T13:27:02;0.60;;;0.60;;
16262;SDS011;8239;48.594;8.598;2023-03-24T13:29:45;0.50;;;0.50;;
16262;SDS011;8239;48.594;8.598;2023-03-24T13:32:29;0.60;;;0.50;;
16262;SDS011;8239;48.594;8.598;2023-03-24T13:35:02;0.63;;;0.63;;
16262;SDS011;8239;48.594;8.598;2023-03-24T13:37:37;1.40;;;0.70;;
16262;SDS011;8239;48.594;8.598;2023-03-24T13:40:08;0.60;;;0.60;;
16262;SDS011;8239;48.594;8.598;2023-03-24T13:42:44;0.60;;;0.60;;
16262;SDS011;8239;48.594;8.598;2023-03-24T13:45:26;0.70;;;0.70;;
16262;SDS011;8239;48.594;8.598;2023-03-24T13:48:02;0.70;;;0.70;;
16262;SDS011;8239;48.594;8.598;2023-03-24T13:50:33;0.63;;;0.63;;
16262;SDS011;8239;48.594;8.598;2023-03-24T13:53:05;0.40;;;0.40;;
16262;SDS011;8239;48.594;8.598;2023-03-24T13:55:39;0.50;;;0.50;;
16262;SDS011;8239;48.594;8.598;2023-03-24T13:58:14;0.80;;;0.80;;
16262;SDS011;8239;48.594;8.598;2023-03-24T14:03:40;0.60;;;0.60;;
16262;SDS011;8239;48.594;8.598;2023-03-24T14:06:10;0.70;;;0.70;;
16262;SDS011;8239;48.594;8.598;2023-03-24T14:08:41;0.50;;;0.50;;
16262;SDS011;8239;48.594;8.598;2023-03-24T14:17:39;1.03;;;0.60;;
16262;SDS011;8239;48.594;8.598;2023-03-24T14:20:12;0.40;;;0.40;;
16262;SDS011;8239;48.594;8.598;2023-03-24T14:22:56;0.50;;;0.40;;
16262;SDS011;8239;48.594;8.598;2023-03-24T14:25:24;1.13;;;0.60;;
16262;SDS011;8239;48.594;8.598;2023-03-24T14:27:54;0.60;;;0.60;;
16262;SDS011;8239;48.594;8.598;2023-03-24T14:30:35;0.60;;;0.60;;
16262;SDS011;8239;48.594;8.598;2023-03-24T14:33:04;0.60;;;0.60;;
16262;SDS011;8239;48.594;8.598;2023-03-24T14:35:49;0.70;;;0.70;;
16262;SDS011;8239;48.594;8.598;2023-03-24T14:38:27;0.70;;;0.70;;
16262;SDS011;8239;48.594;8.598;2023-03-24T14:40:55;0.97;;;0.70;;
16262;SDS011;8239;48.594;8.598;2023-03-24T14:43:24;0.50;;;0.50;;
16262;SDS011;8239;48.594;8.598;2023-03-24T14:45:54;0.60;;;0.60;;
16262;SDS011;8239;48.594;8.598;2023-03-24T14:51:24;0.60;;;0.60;;
16262;SDS011;8239;48.594;8.598;2023-03-24T14:54:02;0.83;;;0.50;;
16262;SDS011;8239;48.594;8.598;2023-03-24T14:56:32;0.80;;;0.80;;
16262;SDS011;8239;48.594;8.598;2023-03-24T14:59:04;0.70;;;0.60;;
16262;SDS011;8239;48.594;8.598;2023-03-24T15:01:36;1.10;;;0.60;;
16262;SDS011;8239;48.594;8.598;2023-03-24T15:04:09;0.73;;;0.63;;
16262;SDS011;8239;48.594;8.598;2023-03-24T15:06:46;0.70;;;0.70;;
16262;SDS011;8239;48.594;8.598;2023-03-24T15:09:15;0.93;;;0.70;;
16262;SDS011;8239;48.594;8.598;2023-03-24T15:11:44;0.80;;;0.80;;
16262;SDS011;8239;48.594;8.598;2023-03-24T15:14:24;0.70;;;0.70;;
16262;SDS011;8239;48.594;8.598;2023-03-24T15:16:52;0.50;;;0.50;;
16262;SDS011;8239;48.594;8.598;2023-03-24T15:19:22;1.03;;;0.70;;
16262;SDS011;8239;48.594;8.598;2023-03-24T15:21:56;0.60;;;0.60;;
16262;SDS011;8239;48.594;8.598;2023-03-24T15:24:30;0.90;;;0.70;;
16262;SDS011;8239;48.594;8.598;2023-03-24T15:27:12;0.53;;;0.53;;
16262;SDS011;8239;48.594;8.598;2023-03-24T15:29:44;0.60;;;0.60;;
16262;SDS011;8239;48.594;8.598;2023-03-24T15:32:14;1.40;;;0.60;;
16262;SDS011;8239;48.594;8.598;2023-03-24T15:34:46;0.70;;;0.60;;
16262;SDS011;8239;48.594;8.598;2023-03-24T15:37:19;0.83;;;0.50;;
16262;SDS011;8239;48.594;8.598;2023-03-24T15:39:49;0.60;;;0.60;;
16262;SDS011;8239;48.594;8.598;2023-03-24T15:42:19;0.55;;;0.55;;
16262;SDS011;8239;48.594;8.598;2023-03-24T15:44:48;0.77;;;0.43;;
16262;SDS011;8239;48.594;8.598;2023-03-24T15:47:19;0.63;;;0.45;;
16262;SDS011;8239;48.594;8.598;2023-03-24T15:49:49;0.40;;;0.40;;
16262;SDS011;8239;48.594;8.598;2023-03-24T15:52:23;0.40;;;0.40;;
16262;SDS011;8239;48.594;8.598;2023-03-24T15:54:55;0.68;;;0.40;;
16262;SDS011;8239;48.594;8.598;2023-03-24T15:57:25;0.50;;;0.50;;
16262;SDS011;8239;48.594;8.598;2023-03-24T16:00:04;0.50;;;0.50;;
16262;SDS011;8239;48.594;8.598;2023-03-24T16:02:40;0.97;;;0.60;;